sensor_id;sensor_type;location;lat;lon;timestamp;temperature;humidity
23311;DHT22;11828;51.508;18.118;2023-05-21T00:00:36;30.60;37.90
23311;DHT22;11828;51.508;18.118;2023-05-21T00:03:22;30.60;37.80
23311;DHT22;11828;51.508;18.118;2023-05-21T00:05:51;30.60;37.80
23311;DHT22;11828;51.508;18.118;2023-05-21T00:08:18;30.60;37.70
23311;DHT22;11828;51.508;18.118;2023-05-21T00:10:45;30.60;37.60
23311;DHT22;11828;51.508;18.118;2023-05-21T00:13:11;30.30;38.00
23311;DHT22;11828;51.508;18.118;2023-05-21T00:15:37;30.50;37.80
23311;DHT22;11828;51.508;18.118;2023-05-21T00:18:04;30.50;37.80
23311;DHT22;11828;51.508;18.118;2023-05-21T00:20:30;30.40;37.90
23311;DHT22;11828;51.508;18.118;2023-05-21T00:23:00;30.40;38.00
23311;DHT22;11828;51.508;18.118;2023-05-21T00:25:30;30.40;38.00
23311;DHT22;11828;51.508;18.118;2023-05-21T00:27:56;30.40;38.00
23311;DHT22;11828;51.508;18.118;2023-05-21T00:30:22;30.30;38.20
23311;DHT22;11828;51.508;18.118;2023-05-21T00:32:49;30.40;37.80
23311;DHT22;11828;51.508;18.118;2023-05-21T00:35:15;30.30;37.60
23311;DHT22;11828;51.508;18.118;2023-05-21T00:37:41;30.30;37.60
23311;DHT22;11828;51.508;18.118;2023-05-21T00:40:08;30.30;37.80
23311;DHT22;11828;51.508;18.118;2023-05-21T00:42:35;30.30;37.90
23311;DHT22;11828;51.508;18.118;2023-05-21T00:45:05;30.30;37.90
23311;DHT22;11828;51.508;18.118;2023-05-21T00:47:32;30.20;37.80
23311;DHT22;11828;51.508;18.118;2023-05-21T00:50:01;30.30;37.90
23311;DHT22;11828;51.508;18.118;2023-05-21T00:52:28;30.20;37.80
23311;DHT22;11828;51.508;18.118;2023-05-21T00:54:54;30.20;37.80
23311;DHT22;11828;51.508;18.118;2023-05-21T00:57:24;30.20;37.90
23311;DHT22;11828;51.508;18.118;2023-05-21T00:59:52;30.20;37.90
23311;DHT22;11828;51.508;18.118;2023-05-21T01:02:19;30.20;37.90
23311;DHT22;11828;51.508;18.118;2023-05-21T01:04:45;30.20;37.90
23311;DHT22;11828;51.508;18.118;2023-05-21T01:07:12;30.10;37.90
23311;DHT22;11828;51.508;18.118;2023-05-21T01:09:42;30.10;38.00
23311;DHT22;11828;51.508;18.118;2023-05-21T01:12:09;30.10;37.90
23311;DHT22;11828;51.508;18.118;2023-05-21T01:14:36;30.10;37.70
23311;DHT22;11828;51.508;18.118;2023-05-21T01:17:04;30.00;37.10
23311;DHT22;11828;51.508;18.118;2023-05-21T01:19:31;30.00;37.70
23311;DHT22;11828;51.508;18.118;2023-05-21T01:22:03;30.00;37.80
23311;DHT22;11828;51.508;18.118;2023-05-21T01:26:59;30.10;37.50
23311;DHT22;11828;51.508;18.118;2023-05-21T01:29:26;29.80;37.90
23311;DHT22;11828;51.508;18.118;2023-05-21T01:40:22;29.80;38.20
23311;DHT22;11828;51.508;18.118;2023-05-21T01:43:07;29.70;38.10
23311;DHT22;11828;51.508;18.118;2023-05-21T01:45:37;29.70;38.20
23311;DHT22;11828;51.508;18.118;2023-05-21T01:48:06;29.80;38.20
23311;DHT22;11828;51.508;18.118;2023-05-21T01:50:34;29.80;38.10
23311;DHT22;11828;51.508;18.118;2023-05-21T01:53:02;29.80;37.90
23311;DHT22;11828;51.508;18.118;2023-05-21T01:55:30;29.70;37.90
23311;DHT22;11828;51.508;18.118;2023-05-21T02:00:25;29.70;37.30
23311;DHT22;11828;51.508;18.118;2023-05-21T02:02:54;29.70;37.90
23311;DHT22;11828;51.508;18.118;2023-05-21T02:05:20;29.70;37.80
23311;DHT22;11828;51.508;18.118;2023-05-21T02:07:48;29.60;37.90
23311;DHT22;11828;51.508;18.118;2023-05-21T02:10:15;29.60;38.00
23311;DHT22;11828;51.508;18.118;2023-05-21T02:12:42;29.60;38.10
23311;DHT22;11828;51.508;18.118;2023-05-21T02:15:08;29.60;38.10
23311;DHT22;11828;51.508;18.118;2023-05-21T02:17:35;29.60;37.60
23311;DHT22;11828;51.508;18.118;2023-05-21T02:20:03;29.60;38.10
23311;DHT22;11828;51.508;18.118;2023-05-21T02:22:37;29.50;38.00
23311;DHT22;11828;51.508;18.118;2023-05-21T02:25:05;29.50;38.10
23311;DHT22;11828;51.508;18.118;2023-05-21T02:27:33;29.50;39.70
23311;DHT22;11828;51.508;18.118;2023-05-21T02:30:02;29.50;38.10
23311;DHT22;11828;51.508;18.118;2023-05-21T02:32:30;29.50;38.10
23311;DHT22;11828;51.508;18.118;2023-05-21T02:34:57;29.40;38.20
23311;DHT22;11828;51.508;18.118;2023-05-21T02:37:24;29.50;38.20
23311;DHT22;11828;51.508;18.118;2023-05-21T02:39:54;29.50;38.10
23311;DHT22;11828;51.508;18.118;2023-05-21T02:42:21;29.50;37.90
23311;DHT22;11828;51.508;18.118;2023-05-21T02:44:49;29.30;37.00
23311;DHT22;11828;51.508;18.118;2023-05-21T02:47:19;29.50;37.70
23311;DHT22;11828;51.508;18.118;2023-05-21T02:49:47;29.40;38.40
23311;DHT22;11828;51.508;18.118;2023-05-21T02:52:16;29.40;37.70
23311;DHT22;11828;51.508;18.118;2023-05-21T02:54:43;29.40;37.70
23311;DHT22;11828;51.508;18.118;2023-05-21T02:57:10;29.50;37.80
23311;DHT22;11828;51.508;18.118;2023-05-21T02:59:36;29.40;37.80
23311;DHT22;11828;51.508;18.118;2023-05-21T03:04:39;29.40;37.30
23311;DHT22;11828;51.508;18.118;2023-05-21T03:07:14;29.30;37.80
23311;DHT22;11828;51.508;18.118;2023-05-21T03:09:42;29.40;37.90
23311;DHT22;11828;51.508;18.118;2023-05-21T03:12:09;29.50;37.80
23311;DHT22;11828;51.508;18.118;2023-05-21T03:14:35;29.50;37.80
23311;DHT22;11828;51.508;18.118;2023-05-21T03:17:02;29.50;37.80
23311;DHT22;11828;51.508;18.118;2023-05-21T03:19:33;29.50;37.80
23311;DHT22;11828;51.508;18.118;2023-05-21T03:22:01;29.50;37.80
23311;DHT22;11828;51.508;18.118;2023-05-21T03:24:28;29.60;37.80
23311;DHT22;11828;51.508;18.118;2023-05-21T03:26:58;29.60;37.70
23311;DHT22;11828;51.508;18.118;2023-05-21T03:29:28;29.70;37.70
23311;DHT22;11828;51.508;18.118;2023-05-21T03:31:54;29.70;37.60
23311;DHT22;11828;51.508;18.118;2023-05-21T03:34:20;29.70;37.60
23311;DHT22;11828;51.508;18.118;2023-05-21T03:36:46;29.70;37.50
23311;DHT22;11828;51.508;18.118;2023-05-21T03:39:13;29.70;37.40
23311;DHT22;11828;51.508;18.118;2023-05-21T03:41:39;29.80;37.40
23311;DHT22;11828;51.508;18.118;2023-05-21T03:44:05;29.80;37.20
23311;DHT22;11828;51.508;18.118;2023-05-21T03:46:32;29.80;37.30
23311;DHT22;11828;51.508;18.118;2023-05-21T03:48:58;29.90;37.90
23311;DHT22;11828;51.508;18.118;2023-05-21T03:51:24;29.90;37.10
23311;DHT22;11828;51.508;18.118;2023-05-21T03:53:51;30.00;37.10
23311;DHT22;11828;51.508;18.118;2023-05-21T03:56:17;30.00;37.10
23311;DHT22;11828;51.508;18.118;2023-05-21T03:58:43;30.10;37.10
23311;DHT22;11828;51.508;18.118;2023-05-21T04:01:09;30.10;37.00
23311;DHT22;11828;51.508;18.118;2023-05-21T04:03:36;30.20;37.00
23311;DHT22;11828;51.508;18.118;2023-05-21T04:06:02;30.40;36.40
23311;DHT22;11828;51.508;18.118;2023-05-21T04:08:29;30.40;36.90
23311;DHT22;11828;51.508;18.118;2023-05-21T04:10:56;30.50;36.80
23311;DHT22;11828;51.508;18.118;2023-05-21T04:13:22;30.60;36.70
23311;DHT22;11828;51.508;18.118;2023-05-21T04:15:49;30.70;36.60
23311;DHT22;11828;51.508;18.118;2023-05-21T04:18:15;30.70;36.50
23311;DHT22;11828;51.508;18.118;2023-05-21T04:20:42;30.70;36.50
23311;DHT22;11828;51.508;18.118;2023-05-21T04:23:08;30.70;36.50
23311;DHT22;11828;51.508;18.118;2023-05-21T04:25:35;30.70;36.40
23311;DHT22;11828;51.508;18.118;2023-05-21T04:28:01;30.70;36.50
23311;DHT22;11828;51.508;18.118;2023-05-21T04:30:27;30.60;36.60
23311;DHT22;11828;51.508;18.118;2023-05-21T04:32:53;30.60;36.70
23311;DHT22;11828;51.508;18.118;2023-05-21T04:35:20;30.60;36.80
23311;DHT22;11828;51.508;18.118;2023-05-21T04:37:46;30.70;36.80
23311;DHT22;11828;51.508;18.118;2023-05-21T04:40:12;30.70;36.80
23311;DHT22;11828;51.508;18.118;2023-05-21T04:42:45;30.90;36.70
23311;DHT22;11828;51.508;18.118;2023-05-21T04:45:13;31.10;36.40
23311;DHT22;11828;51.508;18.118;2023-05-21T04:47:41;31.20;36.00
23311;DHT22;11828;51.508;18.118;2023-05-21T04:50:08;31.40;36.00
23311;DHT22;11828;51.508;18.118;2023-05-21T04:52:35;31.50;35.60
23311;DHT22;11828;51.508;18.118;2023-05-21T04:55:02;31.60;35.40
23311;DHT22;11828;51.508;18.118;2023-05-21T04:57:28;31.70;35.40
23311;DHT22;11828;51.508;18.118;2023-05-21T04:59:55;31.70;35.30
23311;DHT22;11828;51.508;18.118;2023-05-21T05:02:22;31.80;35.30
23311;DHT22;11828;51.508;18.118;2023-05-21T05:04:48;31.80;35.00
23311;DHT22;11828;51.508;18.118;2023-05-21T05:07:14;31.80;34.90
23311;DHT22;11828;51.508;18.118;2023-05-21T05:09:42;31.90;35.00
23311;DHT22;11828;51.508;18.118;2023-05-21T05:12:08;31.90;35.00
23311;DHT22;11828;51.508;18.118;2023-05-21T05:14:34;31.90;34.80
23311;DHT22;11828;51.508;18.118;2023-05-21T05:17:00;32.00;34.70
23311;DHT22;11828;51.508;18.118;2023-05-21T05:19:27;32.10;35.30
23311;DHT22;11828;51.508;18.118;2023-05-21T05:21:53;32.10;34.30
23311;DHT22;11828;51.508;18.118;2023-05-21T05:24:19;32.10;34.30
23311;DHT22;11828;51.508;18.118;2023-05-21T05:26:45;32.10;34.10
23311;DHT22;11828;51.508;18.118;2023-05-21T05:29:11;32.20;34.10
23311;DHT22;11828;51.508;18.118;2023-05-21T05:31:37;32.30;34.00
23311;DHT22;11828;51.508;18.118;2023-05-21T05:34:04;32.40;33.90
23311;DHT22;11828;51.508;18.118;2023-05-21T05:36:30;32.50;33.70
23311;DHT22;11828;51.508;18.118;2023-05-21T05:38:56;32.60;33.50
23311;DHT22;11828;51.508;18.118;2023-05-21T05:41:22;32.70;33.50
23311;DHT22;11828;51.508;18.118;2023-05-21T05:43:48;32.70;32.80
23311;DHT22;11828;51.508;18.118;2023-05-21T05:46:15;32.80;32.80
23311;DHT22;11828;51.508;18.118;2023-05-21T05:48:41;32.90;32.30
23311;DHT22;11828;51.508;18.118;2023-05-21T05:51:07;33.00;32.30
23311;DHT22;11828;51.508;18.118;2023-05-21T05:53:34;33.10;32.20
23311;DHT22;11828;51.508;18.118;2023-05-21T05:56:00;33.20;32.10
23311;DHT22;11828;51.508;18.118;2023-05-21T05:58:26;33.30;31.80
23311;DHT22;11828;51.508;18.118;2023-05-21T06:00:52;33.20;30.90
23311;DHT22;11828;51.508;18.118;2023-05-21T06:03:18;33.10;30.90
23311;DHT22;11828;51.508;18.118;2023-05-21T06:05:44;33.10;30.20
23311;DHT22;11828;51.508;18.118;2023-05-21T06:08:11;33.00;30.00
23311;DHT22;11828;51.508;18.118;2023-05-21T06:10:37;33.00;30.40
23311;DHT22;11828;51.508;18.118;2023-05-21T06:13:03;33.00;29.60
23311;DHT22;11828;51.508;18.118;2023-05-21T06:15:29;32.90;29.20
23311;DHT22;11828;51.508;18.118;2023-05-21T06:17:55;32.90;29.70
23311;DHT22;11828;51.508;18.118;2023-05-21T06:20:21;32.90;30.00
23311;DHT22;11828;51.508;18.118;2023-05-21T06:22:47;33.00;30.00
23311;DHT22;11828;51.508;18.118;2023-05-21T06:25:13;33.40;30.00
23311;DHT22;11828;51.508;18.118;2023-05-21T06:27:40;33.60;29.70
23311;DHT22;11828;51.508;18.118;2023-05-21T06:30:07;33.80;29.10
23311;DHT22;11828;51.508;18.118;2023-05-21T06:32:33;33.90;28.90
23311;DHT22;11828;51.508;18.118;2023-05-21T06:34:59;34.10;28.30
23311;DHT22;11828;51.508;18.118;2023-05-21T06:37:26;34.30;28.50
23311;DHT22;11828;51.508;18.118;2023-05-21T06:39:52;34.30;28.30
23311;DHT22;11828;51.508;18.118;2023-05-21T06:42:18;34.40;27.90
23311;DHT22;11828;51.508;18.118;2023-05-21T06:44:44;34.60;27.90
23311;DHT22;11828;51.508;18.118;2023-05-21T06:47:10;34.60;27.90
23311;DHT22;11828;51.508;18.118;2023-05-21T06:49:36;34.80;27.60
23311;DHT22;11828;51.508;18.118;2023-05-21T06:52:03;34.90;27.70
23311;DHT22;11828;51.508;18.118;2023-05-21T06:54:29;35.50;28.10
23311;DHT22;11828;51.508;18.118;2023-05-21T06:56:55;36.00;27.20
23311;DHT22;11828;51.508;18.118;2023-05-21T06:59:21;36.80;27.10
23311;DHT22;11828;51.508;18.118;2023-05-21T07:01:48;37.50;26.20
23311;DHT22;11828;51.508;18.118;2023-05-21T07:04:14;38.20;25.50
23311;DHT22;11828;51.508;18.118;2023-05-21T07:06:40;38.80;24.90
23311;DHT22;11828;51.508;18.118;2023-05-21T07:09:06;39.20;23.60
23311;DHT22;11828;51.508;18.118;2023-05-21T07:11:32;39.80;24.10
23311;DHT22;11828;51.508;18.118;2023-05-21T07:13:59;40.30;23.60
23311;DHT22;11828;51.508;18.118;2023-05-21T07:16:25;40.60;23.10
23311;DHT22;11828;51.508;18.118;2023-05-21T07:18:51;41.10;23.00
23311;DHT22;11828;51.508;18.118;2023-05-21T07:21:18;41.60;22.50
23311;DHT22;11828;51.508;18.118;2023-05-21T07:23:44;42.00;22.20
23311;DHT22;11828;51.508;18.118;2023-05-21T07:26:10;42.60;22.20
23311;DHT22;11828;51.508;18.118;2023-05-21T07:28:36;43.00;21.80
23311;DHT22;11828;51.508;18.118;2023-05-21T07:31:02;43.50;21.60
23311;DHT22;11828;51.508;18.118;2023-05-21T07:33:28;43.90;21.60
23311;DHT22;11828;51.508;18.118;2023-05-21T07:35:54;44.20;21.50
23311;DHT22;11828;51.508;18.118;2023-05-21T07:38:20;44.50;21.20
23311;DHT22;11828;51.508;18.118;2023-05-21T07:40:47;44.80;20.90
23311;DHT22;11828;51.508;18.118;2023-05-21T07:43:13;45.10;20.70
23311;DHT22;11828;51.508;18.118;2023-05-21T07:45:39;45.30;20.40
23311;DHT22;11828;51.508;18.118;2023-05-21T07:48:05;45.50;20.30
23311;DHT22;11828;51.508;18.118;2023-05-21T07:50:31;45.60;19.90
23311;DHT22;11828;51.508;18.118;2023-05-21T07:52:57;45.60;19.70
23311;DHT22;11828;51.508;18.118;2023-05-21T07:55:24;45.60;19.60
23311;DHT22;11828;51.508;18.118;2023-05-21T07:57:50;45.70;19.40
23311;DHT22;11828;51.508;18.118;2023-05-21T08:00:17;45.90;19.30
23311;DHT22;11828;51.508;18.118;2023-05-21T08:02:43;45.90;18.80
23311;DHT22;11828;51.508;18.118;2023-05-21T08:05:10;46.10;18.90
23311;DHT22;11828;51.508;18.118;2023-05-21T08:07:37;46.40;18.90
23311;DHT22;11828;51.508;18.118;2023-05-21T08:10:04;46.60;18.60
23311;DHT22;11828;51.508;18.118;2023-05-21T08:12:31;46.60;18.30
23311;DHT22;11828;51.508;18.118;2023-05-21T08:14:57;46.60;18.20
23311;DHT22;11828;51.508;18.118;2023-05-21T08:17:23;46.90;18.20
23311;DHT22;11828;51.508;18.118;2023-05-21T08:19:50;47.00;17.80
23311;DHT22;11828;51.508;18.118;2023-05-21T08:22:16;47.20;18.20
23311;DHT22;11828;51.508;18.118;2023-05-21T08:24:43;47.30;18.00
23311;DHT22;11828;51.508;18.118;2023-05-21T08:27:09;47.50;18.10
23311;DHT22;11828;51.508;18.118;2023-05-21T08:29:35;47.70;17.70
23311;DHT22;11828;51.508;18.118;2023-05-21T08:32:01;47.70;17.50
23311;DHT22;11828;51.508;18.118;2023-05-21T08:34:28;47.70;17.60
23311;DHT22;11828;51.508;18.118;2023-05-21T08:36:54;47.60;17.30
23311;DHT22;11828;51.508;18.118;2023-05-21T08:39:20;47.50;16.60
23311;DHT22;11828;51.508;18.118;2023-05-21T08:41:49;47.40;17.30
23311;DHT22;11828;51.508;18.118;2023-05-21T08:44:19;47.70;17.60
23311;DHT22;11828;51.508;18.118;2023-05-21T08:46:49;48.00;17.40
23311;DHT22;11828;51.508;18.118;2023-05-21T08:49:22;48.30;17.20
23311;DHT22;11828;51.508;18.118;2023-05-21T08:51:52;48.70;17.20
23311;DHT22;11828;51.508;18.118;2023-05-21T08:54:18;48.80;17.00
23311;DHT22;11828;51.508;18.118;2023-05-21T08:56:45;49.00;17.60
23311;DHT22;11828;51.508;18.118;2023-05-21T08:59:14;49.20;16.80
23311;DHT22;11828;51.508;18.118;2023-05-21T09:01:42;49.40;16.70
23311;DHT22;11828;51.508;18.118;2023-05-21T09:04:09;49.40;16.20
23311;DHT22;11828;51.508;18.118;2023-05-21T09:06:35;49.30;16.30
23311;DHT22;11828;51.508;18.118;2023-05-21T09:09:08;49.20;16.30
23311;DHT22;11828;51.508;18.118;2023-05-21T09:11:40;49.10;16.20
23311;DHT22;11828;51.508;18.118;2023-05-21T09:14:07;49.00;16.00
23311;DHT22;11828;51.508;18.118;2023-05-21T09:16:34;49.00;16.10
23311;DHT22;11828;51.508;18.118;2023-05-21T09:19:00;48.90;15.80
23311;DHT22;11828;51.508;18.118;2023-05-21T09:21:28;48.90;16.00
23311;DHT22;11828;51.508;18.118;2023-05-21T09:23:57;48.80;15.60
23311;DHT22;11828;51.508;18.118;2023-05-21T09:26:24;48.90;15.80
23311;DHT22;11828;51.508;18.118;2023-05-21T09:28:56;49.10;16.00
23311;DHT22;11828;51.508;18.118;2023-05-21T09:31:23;49.40;16.00
23311;DHT22;11828;51.508;18.118;2023-05-21T09:33:50;49.60;15.90
23311;DHT22;11828;51.508;18.118;2023-05-21T09:36:20;49.60;15.50
23311;DHT22;11828;51.508;18.118;2023-05-21T09:38:47;49.80;15.70
23311;DHT22;11828;51.508;18.118;2023-05-21T09:41:18;50.00;15.40
23311;DHT22;11828;51.508;18.118;2023-05-21T09:43:45;50.30;15.70
23311;DHT22;11828;51.508;18.118;2023-05-21T09:46:11;50.50;15.40
23311;DHT22;11828;51.508;18.118;2023-05-21T09:48:38;50.50;15.50
23311;DHT22;11828;51.508;18.118;2023-05-21T09:51:16;50.60;15.60
23311;DHT22;11828;51.508;18.118;2023-05-21T09:53:53;50.60;15.10
23311;DHT22;11828;51.508;18.118;2023-05-21T09:56:21;50.40;14.90
23311;DHT22;11828;51.508;18.118;2023-05-21T09:58:53;50.30;15.20
23311;DHT22;11828;51.508;18.118;2023-05-21T10:01:20;50.10;15.20
23311;DHT22;11828;51.508;18.118;2023-05-21T10:03:51;50.00;15.20
23311;DHT22;11828;51.508;18.118;2023-05-21T10:06:27;49.80;15.20
23311;DHT22;11828;51.508;18.118;2023-05-21T10:08:55;49.80;15.60
23311;DHT22;11828;51.508;18.118;2023-05-21T10:11:22;49.80;15.40
23311;DHT22;11828;51.508;18.118;2023-05-21T10:14:04;49.80;15.50
23311;DHT22;11828;51.508;18.118;2023-05-21T10:16:35;49.70;15.40
23311;DHT22;11828;51.508;18.118;2023-05-21T10:19:02;49.50;15.40
23311;DHT22;11828;51.508;18.118;2023-05-21T10:21:29;49.50;15.30
23311;DHT22;11828;51.508;18.118;2023-05-21T10:23:58;49.40;15.40
23311;DHT22;11828;51.508;18.118;2023-05-21T10:26:27;49.30;15.10
23311;DHT22;11828;51.508;18.118;2023-05-21T10:28:56;49.00;15.10
23311;DHT22;11828;51.508;18.118;2023-05-21T10:31:25;48.80;15.10
23311;DHT22;11828;51.508;18.118;2023-05-21T10:33:53;48.30;14.90
23311;DHT22;11828;51.508;18.118;2023-05-21T10:36:20;48.00;15.00
23311;DHT22;11828;51.508;18.118;2023-05-21T10:38:46;47.80;21.60
23311;DHT22;11828;51.508;18.118;2023-05-21T10:41:14;47.30;15.30
23311;DHT22;11828;51.508;18.118;2023-05-21T10:47:39;46.80;15.20
23311;DHT22;11828;51.508;18.118;2023-05-21T11:01:16;45.50;15.60
23311;DHT22;11828;51.508;18.118;2023-05-21T11:03:45;45.50;15.70
23311;DHT22;11828;51.508;18.118;2023-05-21T11:06:22;45.30;15.90
23311;DHT22;11828;51.508;18.118;2023-05-21T11:08:50;45.30;15.50
23311;DHT22;11828;51.508;18.118;2023-05-21T11:14:39;44.70;16.10
23311;DHT22;11828;51.508;18.118;2023-05-21T11:17:34;44.70;16.10
23311;DHT22;11828;51.508;18.118;2023-05-21T11:20:10;44.50;15.90
23311;DHT22;11828;51.508;18.118;2023-05-21T11:22:38;44.50;16.00
23311;DHT22;11828;51.508;18.118;2023-05-21T11:25:05;44.50;16.00
23311;DHT22;11828;51.508;18.118;2023-05-21T11:27:33;44.40;16.60
23311;DHT22;11828;51.508;18.118;2023-05-21T11:30:14;44.30;15.90
23311;DHT22;11828;51.508;18.118;2023-05-21T11:35:58;44.50;16.10
23311;DHT22;11828;51.508;18.118;2023-05-21T11:38:29;44.70;16.30
23311;DHT22;11828;51.508;18.118;2023-05-21T11:41:02;44.80;15.60
23311;DHT22;11828;51.508;18.118;2023-05-21T11:43:28;44.60;16.00
23311;DHT22;11828;51.508;18.118;2023-05-21T11:45:55;44.70;16.30
23311;DHT22;11828;51.508;18.118;2023-05-21T11:48:25;44.70;16.20
23311;DHT22;11828;51.508;18.118;2023-05-21T11:50:51;44.80;16.00
23311;DHT22;11828;51.508;18.118;2023-05-21T11:53:18;44.70;16.00
23311;DHT22;11828;51.508;18.118;2023-05-21T11:55:45;44.70;16.30
23311;DHT22;11828;51.508;18.118;2023-05-21T11:58:12;44.70;16.30
23311;DHT22;11828;51.508;18.118;2023-05-21T12:00:40;44.90;16.10
23311;DHT22;11828;51.508;18.118;2023-05-21T12:03:07;44.90;16.10
23311;DHT22;11828;51.508;18.118;2023-05-21T12:05:46;44.90;16.20
23311;DHT22;11828;51.508;18.118;2023-05-21T12:08:23;44.90;16.10
23311;DHT22;11828;51.508;18.118;2023-05-21T12:10:59;44.80;16.00
23311;DHT22;11828;51.508;18.118;2023-05-21T12:13:27;45.00;16.20
23311;DHT22;11828;51.508;18.118;2023-05-21T12:15:53;45.00;16.00
23311;DHT22;11828;51.508;18.118;2023-05-21T12:18:20;45.10;16.00
23311;DHT22;11828;51.508;18.118;2023-05-21T12:20:46;45.10;16.00
23311;DHT22;11828;51.508;18.118;2023-05-21T12:23:25;45.30;16.10
23311;DHT22;11828;51.508;18.118;2023-05-21T12:25:51;45.40;16.00
23311;DHT22;11828;51.508;18.118;2023-05-21T12:28:21;45.60;16.30
23311;DHT22;11828;51.508;18.118;2023-05-21T12:30:49;45.60;15.90
23311;DHT22;11828;51.508;18.118;2023-05-21T12:33:16;45.60;16.00
23311;DHT22;11828;51.508;18.118;2023-05-21T12:35:46;45.60;15.80
23311;DHT22;11828;51.508;18.118;2023-05-21T12:38:14;45.60;15.70
23311;DHT22;11828;51.508;18.118;2023-05-21T12:40:41;45.60;15.80
23311;DHT22;11828;51.508;18.118;2023-05-21T12:43:08;45.60;15.80
23311;DHT22;11828;51.508;18.118;2023-05-21T12:45:34;45.80;15.80
23311;DHT22;11828;51.508;18.118;2023-05-21T12:48:02;45.90;15.10
23311;DHT22;11828;51.508;18.118;2023-05-21T12:50:28;45.80;15.10
23311;DHT22;11828;51.508;18.118;2023-05-21T12:52:55;46.00;15.50
23311;DHT22;11828;51.508;18.118;2023-05-21T12:55:23;46.10;15.70
23311;DHT22;11828;51.508;18.118;2023-05-21T12:58:03;46.10;15.60
23311;DHT22;11828;51.508;18.118;2023-05-21T13:00:35;46.20;15.80
23311;DHT22;11828;51.508;18.118;2023-05-21T13:03:02;46.50;15.60
23311;DHT22;11828;51.508;18.118;2023-05-21T13:05:30;46.60;15.20
23311;DHT22;11828;51.508;18.118;2023-05-21T13:07:56;46.80;15.70
23311;DHT22;11828;51.508;18.118;2023-05-21T13:10:23;47.10;15.70
23311;DHT22;11828;51.508;18.118;2023-05-21T13:12:49;47.30;15.80
23311;DHT22;11828;51.508;18.118;2023-05-21T13:15:15;47.60;15.40
23311;DHT22;11828;51.508;18.118;2023-05-21T13:17:41;47.60;14.90
23311;DHT22;11828;51.508;18.118;2023-05-21T13:20:18;47.60;14.90
23311;DHT22;11828;51.508;18.118;2023-05-21T13:22:48;47.50;15.00
23311;DHT22;11828;51.508;18.118;2023-05-21T13:25:33;47.60;15.20
23311;DHT22;11828;51.508;18.118;2023-05-21T13:28:03;47.70;14.70
23311;DHT22;11828;51.508;18.118;2023-05-21T13:30:35;48.00;14.90
23311;DHT22;11828;51.508;18.118;2023-05-21T13:33:02;48.20;14.70
23311;DHT22;11828;51.508;18.118;2023-05-21T13:35:28;48.30;14.40
23311;DHT22;11828;51.508;18.118;2023-05-21T13:37:55;48.30;14.80
23311;DHT22;11828;51.508;18.118;2023-05-21T13:40:21;48.30;15.00
23311;DHT22;11828;51.508;18.118;2023-05-21T13:42:49;48.50;15.20
23311;DHT22;11828;51.508;18.118;2023-05-21T13:45:17;48.60;15.10
23311;DHT22;11828;51.508;18.118;2023-05-21T13:47:45;48.60;15.20
23311;DHT22;11828;51.508;18.118;2023-05-21T13:50:12;48.60;15.10
23311;DHT22;11828;51.508;18.118;2023-05-21T13:52:39;48.60;15.10
23311;DHT22;11828;51.508;18.118;2023-05-21T13:55:06;48.50;15.00
23311;DHT22;11828;51.508;18.118;2023-05-21T13:57:33;48.50;14.80
23311;DHT22;11828;51.508;18.118;2023-05-21T13:59:59;48.60;14.80
23311;DHT22;11828;51.508;18.118;2023-05-21T14:02:25;48.50;15.00
23311;DHT22;11828;51.508;18.118;2023-05-21T14:04:52;48.50;15.00
23311;DHT22;11828;51.508;18.118;2023-05-21T14:07:18;48.30;14.70
23311;DHT22;11828;51.508;18.118;2023-05-21T14:09:45;48.10;14.90
23311;DHT22;11828;51.508;18.118;2023-05-21T14:12:12;48.00;15.10
23311;DHT22;11828;51.508;18.118;2023-05-21T14:14:38;47.90;15.10
23311;DHT22;11828;51.508;18.118;2023-05-21T14:17:05;47.90;15.20
23311;DHT22;11828;51.508;18.118;2023-05-21T14:19:31;47.80;15.00
23311;DHT22;11828;51.508;18.118;2023-05-21T14:21:57;47.80;15.10
23311;DHT22;11828;51.508;18.118;2023-05-21T14:24:24;47.60;15.10
23311;DHT22;11828;51.508;18.118;2023-05-21T14:26:50;47.40;14.80
23311;DHT22;11828;51.508;18.118;2023-05-21T14:29:16;47.30;15.00
23311;DHT22;11828;51.508;18.118;2023-05-21T14:31:43;47.00;15.00
23311;DHT22;11828;51.508;18.118;2023-05-21T14:34:10;46.90;15.10
23311;DHT22;11828;51.508;18.118;2023-05-21T14:36:37;46.70;15.30
23311;DHT22;11828;51.508;18.118;2023-05-21T14:39:03;46.50;15.40
23311;DHT22;11828;51.508;18.118;2023-05-21T14:41:29;46.20;15.50
23311;DHT22;11828;51.508;18.118;2023-05-21T14:43:55;45.90;15.60
23311;DHT22;11828;51.508;18.118;2023-05-21T14:46:22;45.40;15.70
23311;DHT22;11828;51.508;18.118;2023-05-21T14:48:48;45.00;16.00
23311;DHT22;11828;51.508;18.118;2023-05-21T14:51:14;44.70;16.40
23311;DHT22;11828;51.508;18.118;2023-05-21T14:53:41;44.50;16.20
23311;DHT22;11828;51.508;18.118;2023-05-21T14:56:07;44.50;16.20
23311;DHT22;11828;51.508;18.118;2023-05-21T14:58:33;44.60;16.30
23311;DHT22;11828;51.508;18.118;2023-05-21T15:00:59;44.50;16.40
23311;DHT22;11828;51.508;18.118;2023-05-21T15:03:26;44.40;16.60
23311;DHT22;11828;51.508;18.118;2023-05-21T15:05:53;44.40;16.70
23311;DHT22;11828;51.508;18.118;2023-05-21T15:08:19;44.30;16.80
23311;DHT22;11828;51.508;18.118;2023-05-21T15:10:45;44.30;17.00
23311;DHT22;11828;51.508;18.118;2023-05-21T15:13:11;44.40;16.50
23311;DHT22;11828;51.508;18.118;2023-05-21T15:15:37;44.40;16.60
23311;DHT22;11828;51.508;18.118;2023-05-21T15:18:03;44.30;16.50
23311;DHT22;11828;51.508;18.118;2023-05-21T15:20:29;44.30;16.80
23311;DHT22;11828;51.508;18.118;2023-05-21T15:22:55;44.20;16.90
23311;DHT22;11828;51.508;18.118;2023-05-21T15:25:23;44.10;17.00
23311;DHT22;11828;51.508;18.118;2023-05-21T15:27:49;43.70;17.10
23311;DHT22;11828;51.508;18.118;2023-05-21T15:30:16;43.60;17.30
23311;DHT22;11828;51.508;18.118;2023-05-21T15:32:42;43.20;17.50
23311;DHT22;11828;51.508;18.118;2023-05-21T15:35:08;42.70;17.70
23311;DHT22;11828;51.508;18.118;2023-05-21T15:37:34;42.30;18.00
23311;DHT22;11828;51.508;18.118;2023-05-21T15:40:01;41.90;18.10
23311;DHT22;11828;51.508;18.118;2023-05-21T15:42:27;41.50;18.20
23311;DHT22;11828;51.508;18.118;2023-05-21T15:44:56;41.10;18.40
23311;DHT22;11828;51.508;18.118;2023-05-21T15:47:22;40.80;18.60
23311;DHT22;11828;51.508;18.118;2023-05-21T15:49:49;40.50;19.00
23311;DHT22;11828;51.508;18.118;2023-05-21T15:52:15;40.40;19.20
23311;DHT22;11828;51.508;18.118;2023-05-21T15:54:41;40.20;19.50